sensor_id;sensor_type;location;lat;lon;timestamp;temperature;humidity
60727;DHT22;46577;49.004;12.120;2023-06-14T00:00:42;16.50;57.10
60727;DHT22;46577;49.004;12.120;2023-06-14T00:03:08;16.40;57.10
60727;DHT22;46577;49.004;12.120;2023-06-14T00:05:36;16.50;57.30
60727;DHT22;46577;49.004;12.120;2023-06-14T00:08:06;16.30;57.30
60727;DHT22;46577;49.004;12.120;2023-06-14T00:10:34;16.30;58.40
60727;DHT22;46577;49.004;12.120;2023-06-14T00:13:01;16.20;59.00
60727;DHT22;46577;49.004;12.120;2023-06-14T00:15:27;16.30;60.30
60727;DHT22;46577;49.004;12.120;2023-06-14T00:17:53;16.20;60.70
60727;DHT22;46577;49.004;12.120;2023-06-14T00:20:20;16.00;60.60
60727;DHT22;46577;49.004;12.120;2023-06-14T00:22:46;16.00;61.40
60727;DHT22;46577;49.004;12.120;2023-06-14T00:25:11;15.90;62.00
60727;DHT22;46577;49.004;12.120;2023-06-14T00:27:37;15.90;62.60
60727;DHT22;46577;49.004;12.120;2023-06-14T00:30:03;15.80;63.10
60727;DHT22;46577;49.004;12.120;2023-06-14T00:32:29;15.80;62.90
60727;DHT22;46577;49.004;12.120;2023-06-14T00:34:55;15.80;63.60
60727;DHT22;46577;49.004;12.120;2023-06-14T00:37:20;15.80;63.80
60727;DHT22;46577;49.004;12.120;2023-06-14T00:39:46;15.70;64.50
60727;DHT22;46577;49.004;12.120;2023-06-14T00:42:23;15.70;65.30
60727;DHT22;46577;49.004;12.120;2023-06-14T00:44:49;15.70;65.30
60727;DHT22;46577;49.004;12.120;2023-06-14T00:47:14;15.70;65.60
60727;DHT22;46577;49.004;12.120;2023-06-14T00:49:40;15.60;66.10
60727;DHT22;46577;49.004;12.120;2023-06-14T00:52:06;15.50;67.70
60727;DHT22;46577;49.004;12.120;2023-06-14T00:54:32;15.40;68.10
60727;DHT22;46577;49.004;12.120;2023-06-14T00:56:57;15.40;68.70
60727;DHT22;46577;49.004;12.120;2023-06-14T00:59:23;15.30;70.10
60727;DHT22;46577;49.004;12.120;2023-06-14T01:01:49;15.30;69.60
60727;DHT22;46577;49.004;12.120;2023-06-14T01:04:14;15.30;70.00
60727;DHT22;46577;49.004;12.120;2023-06-14T01:06:51;15.50;70.00
60727;DHT22;46577;49.004;12.120;2023-06-14T01:09:36;15.40;70.00
60727;DHT22;46577;49.004;12.120;2023-06-14T01:12:24;15.30;70.50
60727;DHT22;46577;49.004;12.120;2023-06-14T01:14:51;15.30;71.20
60727;DHT22;46577;49.004;12.120;2023-06-14T01:17:18;15.30;71.60
60727;DHT22;46577;49.004;12.120;2023-06-14T01:19:45;15.20;71.70
60727;DHT22;46577;49.004;12.120;2023-06-14T01:22:11;15.20;72.30
60727;DHT22;46577;49.004;12.120;2023-06-14T01:24:36;15.10;72.50
60727;DHT22;46577;49.004;12.120;2023-06-14T01:27:05;15.10;73.20
60727;DHT22;46577;49.004;12.120;2023-06-14T01:29:32;15.10;73.50
60727;DHT22;46577;49.004;12.120;2023-06-14T01:31:59;15.10;73.60
60727;DHT22;46577;49.004;12.120;2023-06-14T01:34:25;15.00;74.10
60727;DHT22;46577;49.004;12.120;2023-06-14T01:36:52;15.00;74.40
60727;DHT22;46577;49.004;12.120;2023-06-14T01:39:20;15.00;74.30
60727;DHT22;46577;49.004;12.120;2023-06-14T01:41:47;15.00;74.70
60727;DHT22;46577;49.004;12.120;2023-06-14T01:44:16;14.80;75.60
60727;DHT22;46577;49.004;12.120;2023-06-14T01:46:42;14.80;77.00
60727;DHT22;46577;49.004;12.120;2023-06-14T01:49:09;14.80;76.40
60727;DHT22;46577;49.004;12.120;2023-06-14T01:51:35;14.90;76.30
60727;DHT22;46577;49.004;12.120;2023-06-14T01:54:01;14.80;76.90
60727;DHT22;46577;49.004;12.120;2023-06-14T01:56:27;14.80;77.10
60727;DHT22;46577;49.004;12.120;2023-06-14T01:58:53;14.80;76.60
60727;DHT22;46577;49.004;12.120;2023-06-14T02:01:19;14.80;76.80
60727;DHT22;46577;49.004;12.120;2023-06-14T02:03:47;14.70;77.00
60727;DHT22;46577;49.004;12.120;2023-06-14T02:06:13;14.70;77.20
60727;DHT22;46577;49.004;12.120;2023-06-14T02:08:39;14.70;77.00
60727;DHT22;46577;49.004;12.120;2023-06-14T02:11:05;14.60;77.50
60727;DHT22;46577;49.004;12.120;2023-06-14T02:13:30;14.70;77.90
60727;DHT22;46577;49.004;12.120;2023-06-14T02:15:56;14.50;78.40
60727;DHT22;46577;49.004;12.120;2023-06-14T02:18:23;14.50;78.80
60727;DHT22;46577;49.004;12.120;2023-06-14T02:20:48;14.50;79.00
60727;DHT22;46577;49.004;12.120;2023-06-14T02:23:14;14.40;79.60
60727;DHT22;46577;49.004;12.120;2023-06-14T02:25:40;14.40;79.50
60727;DHT22;46577;49.004;12.120;2023-06-14T02:28:06;14.40;79.40
60727;DHT22;46577;49.004;12.120;2023-06-14T02:30:31;14.40;79.70
60727;DHT22;46577;49.004;12.120;2023-06-14T02:32:57;14.40;80.30
60727;DHT22;46577;49.004;12.120;2023-06-14T02:35:23;14.30;80.60
60727;DHT22;46577;49.004;12.120;2023-06-14T02:37:52;14.30;81.50
60727;DHT22;46577;49.004;12.120;2023-06-14T02:40:18;14.20;82.20
60727;DHT22;46577;49.004;12.120;2023-06-14T02:42:44;14.20;83.00
60727;DHT22;46577;49.004;12.120;2023-06-14T02:45:09;14.10;83.30
60727;DHT22;46577;49.004;12.120;2023-06-14T02:47:35;14.10;83.50
60727;DHT22;46577;49.004;12.120;2023-06-14T02:50:01;14.00;84.20
60727;DHT22;46577;49.004;12.120;2023-06-14T02:52:28;14.00;84.70
60727;DHT22;46577;49.004;12.120;2023-06-14T02:54:53;14.10;86.00
60727;DHT22;46577;49.004;12.120;2023-06-14T02:57:20;14.10;85.10
60727;DHT22;46577;49.004;12.120;2023-06-14T02:59:45;14.10;84.80
60727;DHT22;46577;49.004;12.120;2023-06-14T03:02:11;14.10;84.90
60727;DHT22;46577;49.004;12.120;2023-06-14T03:04:36;14.10;85.20
60727;DHT22;46577;49.004;12.120;2023-06-14T03:07:03;14.10;85.50
60727;DHT22;46577;49.004;12.120;2023-06-14T03:09:35;14.10;85.10
60727;DHT22;46577;49.004;12.120;2023-06-14T03:12:01;14.00;85.70
60727;DHT22;46577;49.004;12.120;2023-06-14T03:14:28;14.00;86.10
60727;DHT22;46577;49.004;12.120;2023-06-14T03:16:56;14.00;86.90
60727;DHT22;46577;49.004;12.120;2023-06-14T03:19:22;13.90;87.40
60727;DHT22;46577;49.004;12.120;2023-06-14T03:21:48;13.90;87.80
60727;DHT22;46577;49.004;12.120;2023-06-14T03:24:14;13.90;88.40
60727;DHT22;46577;49.004;12.120;2023-06-14T03:26:41;13.90;89.00
60727;DHT22;46577;49.004;12.120;2023-06-14T03:29:07;14.00;89.60
60727;DHT22;46577;49.004;12.120;2023-06-14T03:31:34;13.90;90.20
60727;DHT22;46577;49.004;12.120;2023-06-14T03:34:03;13.90;90.10
60727;DHT22;46577;49.004;12.120;2023-06-14T03:36:28;15.60;91.20
60727;DHT22;46577;49.004;12.120;2023-06-14T03:38:54;13.80;90.60
60727;DHT22;46577;49.004;12.120;2023-06-14T03:41:20;13.80;90.90
60727;DHT22;46577;49.004;12.120;2023-06-14T03:43:46;13.80;90.90
60727;DHT22;46577;49.004;12.120;2023-06-14T03:46:11;13.90;91.00
60727;DHT22;46577;49.004;12.120;2023-06-14T03:48:37;13.90;91.00
60727;DHT22;46577;49.004;12.120;2023-06-14T03:51:04;13.90;91.00
60727;DHT22;46577;49.004;12.120;2023-06-14T03:53:30;14.00;91.00
60727;DHT22;46577;49.004;12.120;2023-06-14T03:55:56;14.00;91.10
60727;DHT22;46577;49.004;12.120;2023-06-14T03:58:22;14.10;90.80
60727;DHT22;46577;49.004;12.120;2023-06-14T04:00:48;14.10;90.90
60727;DHT22;46577;49.004;12.120;2023-06-14T04:03:14;14.20;90.70
60727;DHT22;46577;49.004;12.120;2023-06-14T04:05:41;14.30;90.90
60727;DHT22;46577;49.004;12.120;2023-06-14T04:08:08;14.30;90.80
60727;DHT22;46577;49.004;12.120;2023-06-14T04:10:34;14.40;90.80
60727;DHT22;46577;49.004;12.120;2023-06-14T04:13:00;14.40;90.80
60727;DHT22;46577;49.004;12.120;2023-06-14T04:15:26;14.40;90.90
60727;DHT22;46577;49.004;12.120;2023-06-14T04:17:53;14.50;91.10
60727;DHT22;46577;49.004;12.120;2023-06-14T04:20:23;14.60;91.00
60727;DHT22;46577;49.004;12.120;2023-06-14T04:22:50;14.80;90.80
60727;DHT22;46577;49.004;12.120;2023-06-14T04:25:16;14.90;90.30
60727;DHT22;46577;49.004;12.120;2023-06-14T04:27:42;15.10;90.30
60727;DHT22;46577;49.004;12.120;2023-06-14T04:30:09;15.30;90.00
60727;DHT22;46577;49.004;12.120;2023-06-14T04:32:35;15.50;89.20
60727;DHT22;46577;49.004;12.120;2023-06-14T04:35:06;15.50;89.10
60727;DHT22;46577;49.004;12.120;2023-06-14T04:37:31;15.70;88.10
60727;DHT22;46577;49.004;12.120;2023-06-14T04:39:58;15.90;87.90
60727;DHT22;46577;49.004;12.120;2023-06-14T04:42:24;16.10;86.60
60727;DHT22;46577;49.004;12.120;2023-06-14T04:44:51;16.30;85.90
60727;DHT22;46577;49.004;12.120;2023-06-14T04:47:17;16.70;86.20
60727;DHT22;46577;49.004;12.120;2023-06-14T04:49:43;16.90;84.30
60727;DHT22;46577;49.004;12.120;2023-06-14T04:52:10;17.30;86.30
60727;DHT22;46577;49.004;12.120;2023-06-14T04:54:39;17.70;82.70
60727;DHT22;46577;49.004;12.120;2023-06-14T04:57:08;18.10;80.10
60727;DHT22;46577;49.004;12.120;2023-06-14T04:59:39;18.70;83.00
60727;DHT22;46577;49.004;12.120;2023-06-14T05:02:04;19.20;76.00
60727;DHT22;46577;49.004;12.120;2023-06-14T05:04:31;19.60;72.90
60727;DHT22;46577;49.004;12.120;2023-06-14T05:06:57;19.90;71.20
60727;DHT22;46577;49.004;12.120;2023-06-14T05:09:23;20.20;70.10
60727;DHT22;46577;49.004;12.120;2023-06-14T05:11:48;20.40;69.50
60727;DHT22;46577;49.004;12.120;2023-06-14T05:14:15;20.60;70.60
60727;DHT22;46577;49.004;12.120;2023-06-14T05:16:41;20.90;68.60
60727;DHT22;46577;49.004;12.120;2023-06-14T05:19:08;21.30;65.30
60727;DHT22;46577;49.004;12.120;2023-06-14T05:21:34;21.60;64.30
60727;DHT22;46577;49.004;12.120;2023-06-14T05:24:00;21.80;64.10
60727;DHT22;46577;49.004;12.120;2023-06-14T05:26:26;22.20;61.50
60727;DHT22;46577;49.004;12.120;2023-06-14T05:28:56;22.50;62.00
60727;DHT22;46577;49.004;12.120;2023-06-14T05:31:25;22.80;63.40
60727;DHT22;46577;49.004;12.120;2023-06-14T05:33:51;23.20;58.50
60727;DHT22;46577;49.004;12.120;2023-06-14T05:36:17;23.30;57.40
60727;DHT22;46577;49.004;12.120;2023-06-14T05:38:43;23.30;57.30
60727;DHT22;46577;49.004;12.120;2023-06-14T05:41:09;23.50;58.40
60727;DHT22;46577;49.004;12.120;2023-06-14T05:43:34;23.60;55.80
60727;DHT22;46577;49.004;12.120;2023-06-14T05:46:00;23.70;56.40
60727;DHT22;46577;49.004;12.120;2023-06-14T05:48:25;23.90;55.60
60727;DHT22;46577;49.004;12.120;2023-06-14T05:50:51;24.20;55.40
60727;DHT22;46577;49.004;12.120;2023-06-14T05:53:17;24.60;54.90
60727;DHT22;46577;49.004;12.120;2023-06-14T05:55:42;24.90;53.00
60727;DHT22;46577;49.004;12.120;2023-06-14T05:58:08;25.20;54.30
60727;DHT22;46577;49.004;12.120;2023-06-14T06:00:34;25.60;52.50
60727;DHT22;46577;49.004;12.120;2023-06-14T06:02:59;26.00;51.00
60727;DHT22;46577;49.004;12.120;2023-06-14T06:05:26;26.50;50.20
60727;DHT22;46577;49.004;12.120;2023-06-14T06:07:52;26.90;47.70
60727;DHT22;46577;49.004;12.120;2023-06-14T06:10:17;27.10;48.00
60727;DHT22;46577;49.004;12.120;2023-06-14T06:12:43;27.60;44.90
60727;DHT22;46577;49.004;12.120;2023-06-14T06:15:09;28.20;44.30
60727;DHT22;46577;49.004;12.120;2023-06-14T06:17:38;28.70;43.40
60727;DHT22;46577;49.004;12.120;2023-06-14T06:20:04;29.10;42.00
60727;DHT22;46577;49.004;12.120;2023-06-14T06:22:31;29.80;40.70
60727;DHT22;46577;49.004;12.120;2023-06-14T06:24:57;30.60;41.00
60727;DHT22;46577;49.004;12.120;2023-06-14T06:27:22;31.30;37.10
60727;DHT22;46577;49.004;12.120;2023-06-14T06:29:48;32.00;35.30
60727;DHT22;46577;49.004;12.120;2023-06-14T06:32:15;32.70;33.80
60727;DHT22;46577;49.004;12.120;2023-06-14T06:34:40;33.50;33.00
60727;DHT22;46577;49.004;12.120;2023-06-14T06:37:06;33.80;31.40
60727;DHT22;46577;49.004;12.120;2023-06-14T06:39:33;34.20;31.80
60727;DHT22;46577;49.004;12.120;2023-06-14T06:41:58;34.60;30.00
60727;DHT22;46577;49.004;12.120;2023-06-14T06:44:24;34.90;29.10
60727;DHT22;46577;49.004;12.120;2023-06-14T06:46:49;34.90;29.10
60727;DHT22;46577;49.004;12.120;2023-06-14T06:49:15;35.20;29.00
60727;DHT22;46577;49.004;12.120;2023-06-14T06:51:42;35.80;28.90
60727;DHT22;46577;49.004;12.120;2023-06-14T06:54:08;36.40;27.50
60727;DHT22;46577;49.004;12.120;2023-06-14T06:56:34;37.10;27.50
60727;DHT22;46577;49.004;12.120;2023-06-14T06:59:01;37.30;26.00
60727;DHT22;46577;49.004;12.120;2023-06-14T07:01:26;38.10;25.10
60727;DHT22;46577;49.004;12.120;2023-06-14T07:03:54;38.00;25.10
60727;DHT22;46577;49.004;12.120;2023-06-14T07:06:20;37.50;25.20
60727;DHT22;46577;49.004;12.120;2023-06-14T07:08:46;37.90;24.90
60727;DHT22;46577;49.004;12.120;2023-06-14T07:11:14;38.10;24.30
60727;DHT22;46577;49.004;12.120;2023-06-14T07:13:39;37.90;23.10
60727;DHT22;46577;49.004;12.120;2023-06-14T07:16:05;38.20;23.00
60727;DHT22;46577;49.004;12.120;2023-06-14T07:18:31;38.20;22.10
60727;DHT22;46577;49.004;12.120;2023-06-14T07:20:57;38.60;22.60
60727;DHT22;46577;49.004;12.120;2023-06-14T07:23:23;39.70;23.30
60727;DHT22;46577;49.004;12.120;2023-06-14T07:25:49;40.50;20.90
60727;DHT22;46577;49.004;12.120;2023-06-14T07:28:16;40.50;20.40
60727;DHT22;46577;49.004;12.120;2023-06-14T07:30:42;40.70;19.60
60727;DHT22;46577;49.004;12.120;2023-06-14T07:33:07;40.70;19.60
60727;DHT22;46577;49.004;12.120;2023-06-14T07:35:34;38.60;21.00
60727;DHT22;46577;49.004;12.120;2023-06-14T07:37:59;36.60;22.50
60727;DHT22;46577;49.004;12.120;2023-06-14T07:40:25;36.40;23.20
60727;DHT22;46577;49.004;12.120;2023-06-14T07:42:50;35.80;24.50
60727;DHT22;46577;49.004;12.120;2023-06-14T07:45:16;33.90;23.90
60727;DHT22;46577;49.004;12.120;2023-06-14T07:47:42;33.40;26.90
60727;DHT22;46577;49.004;12.120;2023-06-14T07:50:08;34.40;24.70
60727;DHT22;46577;49.004;12.120;2023-06-14T07:52:34;33.60;24.30
60727;DHT22;46577;49.004;12.120;2023-06-14T07:54:59;31.50;26.60
60727;DHT22;46577;49.004;12.120;2023-06-14T07:57:26;30.40;28.50
60727;DHT22;46577;49.004;12.120;2023-06-14T07:59:52;30.40;27.70
60727;DHT22;46577;49.004;12.120;2023-06-14T08:02:18;30.50;27.70
60727;DHT22;46577;49.004;12.120;2023-06-14T08:04:44;31.30;27.40
60727;DHT22;46577;49.004;12.120;2023-06-14T08:07:09;30.90;27.40
60727;DHT22;46577;49.004;12.120;2023-06-14T08:09:35;30.90;27.40
60727;DHT22;46577;49.004;12.120;2023-06-14T08:12:04;30.50;28.20
60727;DHT22;46577;49.004;12.120;2023-06-14T08:17:01;32.90;26.50
60727;DHT22;46577;49.004;12.120;2023-06-14T08:19:27;34.90;24.50
60727;DHT22;46577;49.004;12.120;2023-06-14T08:21:52;36.00;24.10
60727;DHT22;46577;49.004;12.120;2023-06-14T08:24:21;36.70;23.50
60727;DHT22;46577;49.004;12.120;2023-06-14T08:26:50;37.90;23.30
60727;DHT22;46577;49.004;12.120;2023-06-14T08:29:15;39.70;21.60
60727;DHT22;46577;49.004;12.120;2023-06-14T08:31:41;39.40;21.40
60727;DHT22;46577;49.004;12.120;2023-06-14T08:34:06;39.20;20.90
60727;DHT22;46577;49.004;12.120;2023-06-14T08:36:32;38.40;21.20
60727;DHT22;46577;49.004;12.120;2023-06-14T08:38:58;38.40;21.60
60727;DHT22;46577;49.004;12.120;2023-06-14T08:41:23;36.60;22.20
60727;DHT22;46577;49.004;12.120;2023-06-14T08:43:52;35.40;23.50
60727;DHT22;46577;49.004;12.120;2023-06-14T08:46:18;34.10;24.50
60727;DHT22;46577;49.004;12.120;2023-06-14T08:48:51;33.80;24.50
60727;DHT22;46577;49.004;12.120;2023-06-14T08:51:21;35.10;23.80
60727;DHT22;46577;49.004;12.120;2023-06-14T08:53:53;35.60;23.00
60727;DHT22;46577;49.004;12.120;2023-06-14T08:56:26;35.00;23.60
60727;DHT22;46577;49.004;12.120;2023-06-14T08:58:53;35.30;23.20
60727;DHT22;46577;49.004;12.120;2023-06-14T09:01:20;36.10;23.40
60727;DHT22;46577;49.004;12.120;2023-06-14T09:03:48;38.40;22.40
60727;DHT22;46577;49.004;12.120;2023-06-14T09:06:14;39.30;21.20
60727;DHT22;46577;49.004;12.120;2023-06-14T09:08:45;39.10;21.50
60727;DHT22;46577;49.004;12.120;2023-06-14T09:11:12;38.10;22.20
60727;DHT22;46577;49.004;12.120;2023-06-14T09:13:39;37.20;23.90
60727;DHT22;46577;49.004;12.120;2023-06-14T09:16:06;37.50;21.80
60727;DHT22;46577;49.004;12.120;2023-06-14T09:18:36;38.30;21.50
60727;DHT22;46577;49.004;12.120;2023-06-14T09:21:02;37.20;21.40
60727;DHT22;46577;49.004;12.120;2023-06-14T09:23:28;37.00;22.30
60727;DHT22;46577;49.004;12.120;2023-06-14T09:25:54;37.40;21.80
60727;DHT22;46577;49.004;12.120;2023-06-14T09:28:20;38.20;21.70
60727;DHT22;46577;49.004;12.120;2023-06-14T09:30:48;37.60;21.60
60727;DHT22;46577;49.004;12.120;2023-06-14T09:33:17;36.40;22.50
60727;DHT22;46577;49.004;12.120;2023-06-14T09:35:45;35.60;23.40
60727;DHT22;46577;49.004;12.120;2023-06-14T09:38:11;34.60;24.10
60727;DHT22;46577;49.004;12.120;2023-06-14T09:40:39;34.10;24.70
60727;DHT22;46577;49.004;12.120;2023-06-14T09:43:08;33.20;25.30
60727;DHT22;46577;49.004;12.120;2023-06-14T09:45:35;31.50;26.70
60727;DHT22;46577;49.004;12.120;2023-06-14T09:48:02;31.10;28.10
60727;DHT22;46577;49.004;12.120;2023-06-14T09:50:28;30.40;28.60
60727;DHT22;46577;49.004;12.120;2023-06-14T09:53:00;30.50;29.40
60727;DHT22;46577;49.004;12.120;2023-06-14T09:55:30;30.10;29.40
60727;DHT22;46577;49.004;12.120;2023-06-14T09:57:57;30.00;29.10
60727;DHT22;46577;49.004;12.120;2023-06-14T10:00:23;30.20;28.50
60727;DHT22;46577;49.004;12.120;2023-06-14T10:02:54;30.10;28.60
60727;DHT22;46577;49.004;12.120;2023-06-14T10:05:25;30.30;29.20
60727;DHT22;46577;49.004;12.120;2023-06-14T10:08:04;30.20;29.30
60727;DHT22;46577;49.004;12.120;2023-06-14T10:10:33;29.80;29.20
60727;DHT22;46577;49.004;12.120;2023-06-14T10:12:59;29.30;30.00
60727;DHT22;46577;49.004;12.120;2023-06-14T10:15:30;29.40;29.80
60727;DHT22;46577;49.004;12.120;2023-06-14T10:18:19;29.70;29.60
60727;DHT22;46577;49.004;12.120;2023-06-14T10:21:04;29.80;30.10
60727;DHT22;46577;49.004;12.120;2023-06-14T10:23:37;30.30;29.30
60727;DHT22;46577;49.004;12.120;2023-06-14T10:26:03;30.80;28.50
60727;DHT22;46577;49.004;12.120;2023-06-14T10:28:30;30.50;28.70
60727;DHT22;46577;49.004;12.120;2023-06-14T10:33:33;30.30;28.70
60727;DHT22;46577;49.004;12.120;2023-06-14T10:36:26;30.50;28.60
60727;DHT22;46577;49.004;12.120;2023-06-14T10:41:26;31.50;28.00
60727;DHT22;46577;49.004;12.120;2023-06-14T10:46:36;31.90;28.10
60727;DHT22;46577;49.004;12.120;2023-06-14T10:49:01;32.40;27.20
60727;DHT22;46577;49.004;12.120;2023-06-14T10:51:39;32.10;26.80
60727;DHT22;46577;49.004;12.120;2023-06-14T10:54:14;31.70;27.40
60727;DHT22;46577;49.004;12.120;2023-06-14T10:56:50;31.50;27.40
60727;DHT22;46577;49.004;12.120;2023-06-14T10:59:17;31.30;27.70
60727;DHT22;46577;49.004;12.120;2023-06-14T11:12:47;28.80;30.70
60727;DHT22;46577;49.004;12.120;2023-06-14T11:15:13;29.60;30.00
60727;DHT22;46577;49.004;12.120;2023-06-14T11:17:39;30.50;29.70
60727;DHT22;46577;49.004;12.120;2023-06-14T11:20:12;31.50;29.10
60727;DHT22;46577;49.004;12.120;2023-06-14T11:22:45;31.30;27.80
60727;DHT22;46577;49.004;12.120;2023-06-14T11:25:13;30.60;29.20
60727;DHT22;46577;49.004;12.120;2023-06-14T11:27:42;30.30;28.20
60727;DHT22;46577;49.004;12.120;2023-06-14T11:30:08;29.70;29.20
60727;DHT22;46577;49.004;12.120;2023-06-14T11:32:35;29.50;30.10
60727;DHT22;46577;49.004;12.120;2023-06-14T11:35:02;29.40;30.00
60727;DHT22;46577;49.004;12.120;2023-06-14T11:37:28;29.20;30.20
60727;DHT22;46577;49.004;12.120;2023-06-14T11:39:57;29.20;30.00
60727;DHT22;46577;49.004;12.120;2023-06-14T11:42:24;28.80;30.60
60727;DHT22;46577;49.004;12.120;2023-06-14T11:44:49;28.70;29.90
60727;DHT22;46577;49.004;12.120;2023-06-14T11:47:15;28.60;30.60
60727;DHT22;46577;49.004;12.120;2023-06-14T11:49:41;29.10;30.20
60727;DHT22;46577;49.004;12.120;2023-06-14T11:52:07;29.60;30.90
60727;DHT22;46577;49.004;12.120;2023-06-14T11:54:33;30.00;30.60
60727;DHT22;46577;49.004;12.120;2023-06-14T11:56:59;30.20;30.00
60727;DHT22;46577;49.004;12.120;2023-06-14T11:59:25;30.00;29.80
60727;DHT22;46577;49.004;12.120;2023-06-14T12:01:53;29.90;30.10
60727;DHT22;46577;49.004;12.120;2023-06-14T12:04:29;29.80;29.90
60727;DHT22;46577;49.004;12.120;2023-06-14T12:06:55;29.00;31.00
60727;DHT22;46577;49.004;12.120;2023-06-14T12:09:23;28.70;30.90
60727;DHT22;46577;49.004;12.120;2023-06-14T12:11:59;28.50;31.40
60727;DHT22;46577;49.004;12.120;2023-06-14T12:14:31;28.60;31.50
60727;DHT22;46577;49.004;12.120;2023-06-14T12:17:06;29.20;32.80
60727;DHT22;46577;49.004;12.120;2023-06-14T12:19:32;28.20;31.40
60727;DHT22;46577;49.004;12.120;2023-06-14T12:22:03;27.90;32.00
60727;DHT22;46577;49.004;12.120;2023-06-14T12:24:30;27.70;32.60
60727;DHT22;46577;49.004;12.120;2023-06-14T12:26:58;27.30;33.60
60727;DHT22;46577;49.004;12.120;2023-06-14T12:29:28;26.90;34.40
60727;DHT22;46577;49.004;12.120;2023-06-14T12:31:54;26.70;35.00
60727;DHT22;46577;49.004;12.120;2023-06-14T12:34:22;26.70;34.90
60727;DHT22;46577;49.004;12.120;2023-06-14T12:36:49;26.50;35.20
60727;DHT22;46577;49.004;12.120;2023-06-14T12:39:15;26.40;35.50
60727;DHT22;46577;49.004;12.120;2023-06-14T12:41:40;26.50;35.50
60727;DHT22;46577;49.004;12.120;2023-06-14T12:44:07;26.50;34.90
60727;DHT22;46577;49.004;12.120;2023-06-14T12:46:33;26.60;35.10
60727;DHT22;46577;49.004;12.120;2023-06-14T12:49:00;26.50;34.90
60727;DHT22;46577;49.004;12.120;2023-06-14T12:51:26;26.50;35.80
60727;DHT22;46577;49.004;12.120;2023-06-14T12:53:51;26.50;35.30
60727;DHT22;46577;49.004;12.120;2023-06-14T12:56:17;26.50;35.20
60727;DHT22;46577;49.004;12.120;2023-06-14T12:58:43;26.80;35.10
60727;DHT22;46577;49.004;12.120;2023-06-14T13:01:09;27.20;34.90
60727;DHT22;46577;49.004;12.120;2023-06-14T13:03:35;27.40;33.70
60727;DHT22;46577;49.004;12.120;2023-06-14T13:06:01;27.50;33.70
60727;DHT22;46577;49.004;12.120;2023-06-14T13:08:27;27.60;33.70
60727;DHT22;46577;49.004;12.120;2023-06-14T13:10:53;27.60;32.70
60727;DHT22;46577;49.004;12.120;2023-06-14T13:13:19;27.60;33.10
60727;DHT22;46577;49.004;12.120;2023-06-14T13:15:45;27.50;32.50
60727;DHT22;46577;49.004;12.120;2023-06-14T13:18:11;27.50;31.90
60727;DHT22;46577;49.004;12.120;2023-06-14T13:20:39;27.40;32.70
60727;DHT22;46577;49.004;12.120;2023-06-14T13:23:05;27.40;32.20
60727;DHT22;46577;49.004;12.120;2023-06-14T13:25:33;27.30;32.90
60727;DHT22;46577;49.004;12.120;2023-06-14T13:27:59;27.40;32.40
60727;DHT22;46577;49.004;12.120;2023-06-14T13:30:25;27.50;32.00
60727;DHT22;46577;49.004;12.120;2023-06-14T13:32:50;27.70;32.30
60727;DHT22;46577;49.004;12.120;2023-06-14T13:35:18;27.90;33.00
60727;DHT22;46577;49.004;12.120;2023-06-14T13:37:44;28.10;32.10
60727;DHT22;46577;49.004;12.120;2023-06-14T13:40:10;28.20;31.30
60727;DHT22;46577;49.004;12.120;2023-06-14T13:42:36;28.10;32.60
60727;DHT22;46577;49.004;12.120;2023-06-14T13:45:03;28.20;31.00
60727;DHT22;46577;49.004;12.120;2023-06-14T13:47:29;28.20;32.30
60727;DHT22;46577;49.004;12.120;2023-06-14T13:49:55;28.30;32.10
60727;DHT22;46577;49.004;12.120;2023-06-14T13:52:21;28.50;32.20
60727;DHT22;46577;49.004;12.120;2023-06-14T13:54:47;28.20;31.50
60727;DHT22;46577;49.004;12.120;2023-06-14T13:57:13;27.50;32.40
60727;DHT22;46577;49.004;12.120;2023-06-14T13:59:39;26.40;34.20
60727;DHT22;46577;49.004;12.120;2023-06-14T14:02:06;25.80;35.20
60727;DHT22;46577;49.004;12.120;2023-06-14T14:04:32;25.70;35.30
60727;DHT22;46577;49.004;12.120;2023-06-14T14:06:58;25.70;36.00
60727;DHT22;46577;49.004;12.120;2023-06-14T14:09:23;25.70;36.20
60727;DHT22;46577;49.004;12.120;2023-06-14T14:11:49;26.70;36.60
60727;DHT22;46577;49.004;12.120;2023-06-14T14:14:15;25.10;35.60
60727;DHT22;46577;49.004;12.120;2023-06-14T14:16:41;25.30;35.80
60727;DHT22;46577;49.004;12.120;2023-06-14T14:19:08;25.50;35.00
60727;DHT22;46577;49.004;12.120;2023-06-14T14:21:33;25.60;33.90
60727;DHT22;46577;49.004;12.120;2023-06-14T14:23:59;25.70;33.90
60727;DHT22;46577;49.004;12.120;2023-06-14T14:26:24;25.90;33.90
60727;DHT22;46577;49.004;12.120;2023-06-14T14:28:51;26.10;34.60
60727;DHT22;46577;49.004;12.120;2023-06-14T14:31:17;26.30;33.80
60727;DHT22;46577;49.004;12.120;2023-06-14T14:33:42;26.40;33.00
60727;DHT22;46577;49.004;12.120;2023-06-14T14:36:08;26.30;33.80
60727;DHT22;46577;49.004;12.120;2023-06-14T14:38:34;26.10;33.30
60727;DHT22;46577;49.004;12.120;2023-06-14T14:40:59;26.40;33.70
60727;DHT22;46577;49.004;12.120;2023-06-14T14:43:25;26.40;33.20
60727;DHT22;46577;49.004;12.120;2023-06-14T14:45:52;26.40;32.50
60727;DHT22;46577;49.004;12.120;2023-06-14T14:48:17;26.20;32.60
60727;DHT22;46577;49.004;12.120;2023-06-14T14:50:43;26.30;32.90
60727;DHT22;46577;49.004;12.120;2023-06-14T14:53:08;26.40;33.40
60727;DHT22;46577;49.004;12.120;2023-06-14T14:55:34;26.40;32.60
60727;DHT22;46577;49.004;12.120;2023-06-14T14:58:02;26.50;33.30
60727;DHT22;46577;49.004;12.120;2023-06-14T15:00:28;26.40;33.30
60727;DHT22;46577;49.004;12.120;2023-06-14T15:02:54;26.40;32.60
60727;DHT22;46577;49.004;12.120;2023-06-14T15:05:20;26.50;33.60
60727;DHT22;46577;49.004;12.120;2023-06-14T15:07:46;26.50;32.70
60727;DHT22;46577;49.004;12.120;2023-06-14T15:10:12;26.70;32.90
60727;DHT22;46577;49.004;12.120;2023-06-14T15:12:37;26.80;33.40
60727;DHT22;46577;49.004;12.120;2023-06-14T15:15:03;26.60;33.70
60727;DHT22;46577;49.004;12.120;2023-06-14T15:17:29;26.40;34.20
60727;DHT22;46577;49.004;12.120;2023-06-14T15:19:55;26.40;34.20
60727;DHT22;46577;49.004;12.120;2023-06-14T15:22:21;26.30;33.90
60727;DHT22;46577;49.004;12.120;2023-06-14T15:24:46;26.20;33.50
60727;DHT22;46577;49.004;12.120;2023-06-14T15:27:12;26.00;33.40
60727;DHT22;46577;49.004;12.120;2023-06-14T15:29:41;25.90;34.00
60727;DHT22;46577;49.004;12.120;2023-06-14T15:32:07;25.90;34.60
60727;DHT22;46577;49.004;12.120;2023-06-14T15:34:33;25.80;34.30